sensor_id;sensor_type;location;lat;lon;timestamp;pressure;altitude;pressure_sealevel;temperature;humidity
61554;BME280;47425;51.976;5.326;2022-10-17T09:08:32;101720.44;;;19.11;61.15
61554;BME280;47425;51.976;5.326;2022-10-17T09:19:35;101721.84;;;20.20;58.02
61554;BME280;47425;51.976;5.326;2022-10-17T09:22:16;101749.53;;;20.35;57.62
61554;BME280;47425;51.976;5.326;2022-10-17T09:24:56;101756.09;;;20.45;57.04
61554;BME280;47425;51.976;5.326;2022-10-17T09:27:40;101803.50;;;20.56;56.69
61554;BME280;47425;51.976;5.326;2022-10-17T09:30:34;101820.03;;;20.62;56.66
61554;BME280;47425;51.976;5.326;2022-10-17T09:33:27;101805.59;;;20.68;56.44
61554;BME280;47425;51.976;5.326;2022-10-17T09:35:56;101799.31;;;20.71;56.08
61554;BME280;47425;51.976;5.326;2022-10-17T09:38:25;101759.94;;;20.77;55.98
61554;BME280;47425;51.976;5.326;2022-10-17T09:40:57;101735.81;;;20.81;55.63
61554;BME280;47425;51.976;5.326;2022-10-17T09:43:24;101751.63;;;20.84;55.71
61554;BME280;47425;51.976;5.326;2022-10-17T09:48:50;101729.41;;;20.85;55.57
61554;BME280;47425;51.976;5.326;2022-10-17T09:51:18;101732.63;;;20.91;55.49
61554;BME280;47425;51.976;5.326;2022-10-17T09:53:47;101737.03;;;20.92;55.29
61554;BME280;47425;51.976;5.326;2022-10-17T09:56:17;101751.00;;;20.96;55.19
61554;BME280;47425;51.976;5.326;2022-10-17T09:58:48;101766.06;;;20.97;55.02
61554;BME280;47425;51.976;5.326;2022-10-17T10:01:25;101765.22;;;20.97;55.35
61554;BME280;47425;51.976;5.326;2022-10-17T10:04:25;101778.63;;;21.12;54.83
61554;BME280;47425;51.976;5.326;2022-10-17T10:07:05;101801.16;;;21.05;55.32
61554;BME280;47425;51.976;5.326;2022-10-17T10:09:37;101783.47;;;21.04;55.07
61554;BME280;47425;51.976;5.326;2022-10-17T10:12:13;101799.59;;;21.01;54.89
61554;BME280;47425;51.976;5.326;2022-10-17T10:14:41;101808.31;;;21.05;54.61
61554;BME280;47425;51.976;5.326;2022-10-17T10:17:35;101815.56;;;21.01;55.21
61554;BME280;47425;51.976;5.326;2022-10-17T10:20:05;101822.47;;;21.05;54.79
61554;BME280;47425;51.976;5.326;2022-10-17T10:23:14;101842.00;;;21.06;54.70
61554;BME280;47425;51.976;5.326;2022-10-17T10:26:19;101852.66;;;21.06;54.96
61554;BME280;47425;51.976;5.326;2022-10-17T10:31:31;101843.00;;;21.03;55.04
61554;BME280;47425;51.976;5.326;2022-10-17T10:34:01;101863.28;;;21.06;54.68
61554;BME280;47425;51.976;5.326;2022-10-17T10:39:33;101875.66;;;21.07;54.80
61554;BME280;47425;51.976;5.326;2022-10-17T10:42:03;101884.53;;;21.07;54.34
61554;BME280;47425;51.976;5.326;2022-10-17T10:44:31;101883.59;;;21.08;54.58
61554;BME280;47425;51.976;5.326;2022-10-17T10:47:18;101890.78;;;21.06;54.69
61554;BME280;47425;51.976;5.326;2022-10-17T10:49:45;101895.03;;;21.10;54.32
61554;BME280;47425;51.976;5.326;2022-10-17T10:52:22;101892.59;;;21.06;54.66
61554;BME280;47425;51.976;5.326;2022-10-17T10:55:04;101893.38;;;21.08;54.29
61554;BME280;47425;51.976;5.326;2022-10-17T10:57:42;101894.16;;;21.10;54.20
61554;BME280;47425;51.976;5.326;2022-10-17T11:00:14;101896.91;;;21.08;54.38
61554;BME280;47425;51.976;5.326;2022-10-17T11:02:43;101895.03;;;21.10;54.62
61554;BME280;47425;51.976;5.326;2022-10-17T11:05:24;101901.50;;;21.05;54.27
61554;BME280;47425;51.976;5.326;2022-10-17T11:08:02;101890.78;;;21.06;54.74
61554;BME280;47425;51.976;5.326;2022-10-17T11:13:41;101917.06;;;21.14;54.33
61554;BME280;47425;51.976;5.326;2022-10-17T11:16:43;101911.28;;;21.23;54.08
61554;BME280;47425;51.976;5.326;2022-10-17T11:19:57;101923.25;;;21.15;54.42
61554;BME280;47425;51.976;5.326;2022-10-17T11:22:06;101935.78;;;21.12;54.32
61554;BME280;47425;51.976;5.326;2022-10-17T11:24:50;101932.22;;;21.12;54.39
61554;BME280;47425;51.976;5.326;2022-10-17T11:27:28;101940.31;;;21.10;54.31
61554;BME280;47425;51.976;5.326;2022-10-17T11:29:55;101935.06;;;21.09;54.24
61554;BME280;47425;51.976;5.326;2022-10-17T11:32:44;101938.56;;;21.09;54.46
61554;BME280;47425;51.976;5.326;2022-10-17T11:35:32;101945.72;;;21.09;54.14
61554;BME280;47425;51.976;5.326;2022-10-17T11:38:30;101950.97;;;21.10;54.30
61554;BME280;47425;51.976;5.326;2022-10-17T11:41:01;101950.09;;;21.10;54.33
61554;BME280;47425;51.976;5.326;2022-10-17T11:43:32;101953.69;;;21.09;54.25
61554;BME280;47425;51.976;5.326;2022-10-17T11:46:09;101960.84;;;21.08;54.11
61554;BME280;47425;51.976;5.326;2022-10-17T11:51:23;101949.09;;;21.12;54.54
61554;BME280;47425;51.976;5.326;2022-10-17T11:54:01;101950.09;;;21.10;54.56
61554;BME280;47425;51.976;5.326;2022-10-17T11:57:02;101947.28;;;21.13;54.25
61554;BME280;47425;51.976;5.326;2022-10-17T11:59:56;101947.22;;;21.15;54.31
61554;BME280;47425;51.976;5.326;2022-10-17T12:02:41;101952.53;;;21.15;54.30
61554;BME280;47425;51.976;5.326;2022-10-17T12:08:10;101955.19;;;21.15;54.36
61554;BME280;47425;51.976;5.326;2022-10-17T12:10:45;101964.19;;;21.12;54.08
61554;BME280;47425;51.976;5.326;2022-10-17T12:15:55;101954.34;;;21.14;54.21
61554;BME280;47425;51.976;5.326;2022-10-17T12:18:24;101957.94;;;21.13;54.30
61554;BME280;47425;51.976;5.326;2022-10-17T12:20:56;101961.47;;;21.13;54.09
61554;BME280;47425;51.976;5.326;2022-10-17T12:23:30;101958.88;;;21.12;54.04
61554;BME280;47425;51.976;5.326;2022-10-17T12:25:59;101963.19;;;21.15;53.80
61554;BME280;47425;51.976;5.326;2022-10-17T12:28:39;101966.00;;;21.11;54.25
61554;BME280;47425;51.976;5.326;2022-10-17T12:34:02;101970.41;;;21.12;53.78
61554;BME280;47425;51.976;5.326;2022-10-17T12:46:46;101984.50;;;21.15;53.84
61554;BME280;47425;51.976;5.326;2022-10-17T12:52:13;101990.25;;;21.24;53.71
61554;BME280;47425;51.976;5.326;2022-10-17T12:54:43;101995.97;;;21.17;53.70
61554;BME280;47425;51.976;5.326;2022-10-17T12:57:21;101996.16;;;21.12;54.06
61554;BME280;47425;51.976;5.326;2022-10-17T12:59:48;101998.69;;;21.15;53.90
61554;BME280;47425;51.976;5.326;2022-10-17T13:02:20;101997.97;;;21.11;53.92
61554;BME280;47425;51.976;5.326;2022-10-17T13:04:54;102002.38;;;21.12;53.97
61554;BME280;47425;51.976;5.326;2022-10-17T13:07:23;102004.06;;;21.13;54.31
61554;BME280;47425;51.976;5.326;2022-10-17T13:09:49;102010.38;;;21.12;54.03
61554;BME280;47425;51.976;5.326;2022-10-17T13:12:21;102008.63;;;21.11;53.96
61554;BME280;47425;51.976;5.326;2022-10-17T13:14:50;102020.13;;;21.12;54.08
61554;BME280;47425;51.976;5.326;2022-10-17T13:17:25;102019.13;;;21.15;53.91
61554;BME280;47425;51.976;5.326;2022-10-17T13:19:53;102020.13;;;21.12;53.86
61554;BME280;47425;51.976;5.326;2022-10-17T13:22:30;102029.00;;;21.12;54.23
61554;BME280;47425;51.976;5.326;2022-10-17T13:25:13;102036.94;;;21.14;53.83
61554;BME280;47425;51.976;5.326;2022-10-17T13:27:38;102041.25;;;21.17;53.61
61554;BME280;47425;51.976;5.326;2022-10-17T13:30:25;102054.66;;;21.15;53.83
61554;BME280;47425;51.976;5.326;2022-10-17T13:32:52;102047.59;;;21.14;53.65
61554;BME280;47425;51.976;5.326;2022-10-17T13:35:30;102063.56;;;21.14;54.05
61554;BME280;47425;51.976;5.326;2022-10-17T13:38:01;102054.69;;;21.13;53.90
61554;BME280;47425;51.976;5.326;2022-10-17T13:40:30;102068.00;;;21.13;54.13
61554;BME280;47425;51.976;5.326;2022-10-17T13:43:03;102066.06;;;21.17;54.16
61554;BME280;47425;51.976;5.326;2022-10-17T13:45:35;102072.31;;;21.16;53.77
61554;BME280;47425;51.976;5.326;2022-10-17T13:48:05;102073.28;;;21.15;53.90
61554;BME280;47425;51.976;5.326;2022-10-17T13:50:35;102077.66;;;21.16;53.68
61554;BME280;47425;51.976;5.326;2022-10-17T13:53:15;102077.66;;;21.16;53.95
61554;BME280;47425;51.976;5.326;2022-10-17T13:56:21;102085.56;;;21.18;53.68
61554;BME280;47425;51.976;5.326;2022-10-17T13:58:52;102090.13;;;21.16;53.75
61554;BME280;47425;51.976;5.326;2022-10-17T14:01:40;102082.13;;;21.16;53.54
61554;BME280;47425;51.976;5.326;2022-10-17T14:04:08;102091.88;;;21.17;53.89
61554;BME280;47425;51.976;5.326;2022-10-17T14:06:40;102080.41;;;21.15;53.72
61554;BME280;47425;51.976;5.326;2022-10-17T14:09:21;102076.81;;;21.16;54.27
61554;BME280;47425;51.976;5.326;2022-10-17T14:12:15;102081.22;;;21.17;53.90
61554;BME280;47425;51.976;5.326;2022-10-17T14:14:47;102085.66;;;21.16;54.01
61554;BME280;47425;51.976;5.326;2022-10-17T14:17:23;102079.47;;;21.16;54.29
61554;BME280;47425;51.976;5.326;2022-10-17T14:19:56;102083.88;;;21.17;54.14
61554;BME280;47425;51.976;5.326;2022-10-17T14:22:26;102085.53;;;21.19;53.97
61554;BME280;47425;51.976;5.326;2022-10-17T14:24:52;102081.88;;;21.22;53.83
61554;BME280;47425;51.976;5.326;2022-10-17T14:27:29;102073.06;;;21.20;54.18
61554;BME280;47425;51.976;5.326;2022-10-17T14:29:58;102072.06;;;21.22;53.75
61554;BME280;47425;51.976;5.326;2022-10-17T14:32:31;102066.81;;;21.21;53.69
61554;BME280;47425;51.976;5.326;2022-10-17T14:34:59;102069.41;;;21.22;53.89
61554;BME280;47425;51.976;5.326;2022-10-17T14:37:35;102073.00;;;21.21;53.96
61554;BME280;47425;51.976;5.326;2022-10-17T14:40:05;102078.13;;;21.26;53.53
61554;BME280;47425;51.976;5.326;2022-10-17T14:42:32;102078.16;;;21.24;53.57
61554;BME280;47425;51.976;5.326;2022-10-17T14:45:10;102083.56;;;21.23;53.72
61554;BME280;47425;51.976;5.326;2022-10-17T14:47:38;102088.81;;;21.24;53.48
61554;BME280;47425;51.976;5.326;2022-10-17T14:50:25;102088.78;;;21.26;53.66
61554;BME280;47425;51.976;5.326;2022-10-17T14:55:29;102085.97;;;21.29;53.33
61554;BME280;47425;51.976;5.326;2022-10-17T14:57:56;102089.56;;;21.28;53.42
61554;BME280;47425;51.976;5.326;2022-10-17T15:00:23;102089.72;;;21.25;53.82
61554;BME280;47425;51.976;5.326;2022-10-17T15:02:50;102099.38;;;21.27;53.46
61554;BME280;47425;51.976;5.326;2022-10-17T15:05:16;102101.09;;;21.28;53.38
61554;BME280;47425;51.976;5.326;2022-10-17T15:07:42;102091.78;;;21.18;53.65
61554;BME280;47425;51.976;5.326;2022-10-17T15:10:32;102114.53;;;21.25;53.51
61554;BME280;47425;51.976;5.326;2022-10-17T15:12:59;102107.47;;;21.24;53.57
61554;BME280;47425;51.976;5.326;2022-10-17T15:15:28;102111.88;;;21.25;53.67
61554;BME280;47425;51.976;5.326;2022-10-17T15:17:54;102126.00;;;21.27;53.69
61554;BME280;47425;51.976;5.326;2022-10-17T15:20:21;102123.47;;;21.24;53.74
61554;BME280;47425;51.976;5.326;2022-10-17T15:22:51;102125.34;;;21.22;53.65
61554;BME280;47425;51.976;5.326;2022-10-17T15:25:18;102127.00;;;21.25;53.63
61554;BME280;47425;51.976;5.326;2022-10-17T15:27:44;102127.94;;;21.24;53.72
61554;BME280;47425;51.976;5.326;2022-10-17T15:30:19;102139.59;;;21.21;53.67
61554;BME280;47425;51.976;5.326;2022-10-17T15:32:47;102135.00;;;21.25;53.61
61554;BME280;47425;51.976;5.326;2022-10-17T15:35:13;102141.19;;;21.25;53.70
61554;BME280;47425;51.976;5.326;2022-10-17T15:37:38;102134.13;;;21.24;53.98
61554;BME280;47425;51.976;5.326;2022-10-17T15:40:05;102145.66;;;21.25;53.50
61554;BME280;47425;51.976;5.326;2022-10-17T15:42:50;102141.09;;;21.27;54.00
61554;BME280;47425;51.976;5.326;2022-10-17T15:45:18;102150.00;;;21.27;53.52
61554;BME280;47425;51.976;5.326;2022-10-17T15:47:49;102150.84;;;21.28;53.68
61554;BME280;47425;51.976;5.326;2022-10-17T15:50:17;102159.56;;;21.32;53.77
61554;BME280;47425;51.976;5.326;2022-10-17T15:52:43;102163.09;;;21.32;53.51
61554;BME280;47425;51.976;5.326;2022-10-17T15:55:09;102172.00;;;21.31;53.57
61554;BME280;47425;51.976;5.326;2022-10-17T15:57:37;102178.22;;;21.32;53.86
61554;BME280;47425;51.976;5.326;2022-10-17T16:00:10;102179.97;;;21.33;53.59
61554;BME280;47425;51.976;5.326;2022-10-17T16:02:38;102187.66;;;21.39;53.88
61554;BME280;47425;51.976;5.326;2022-10-17T16:05:18;102186.66;;;21.41;54.11
61554;BME280;47425;51.976;5.326;2022-10-17T16:07:47;102188.13;;;21.49;53.71
61554;BME280;47425;51.976;5.326;2022-10-17T16:10:15;102188.81;;;21.54;53.76
61554;BME280;47425;51.976;5.326;2022-10-17T16:12:41;102187.81;;;21.56;53.89
61554;BME280;47425;51.976;5.326;2022-10-17T16:15:19;102194.00;;;21.57;54.08
61554;BME280;47425;51.976;5.326;2022-10-17T16:17:47;102205.31;;;21.62;53.89
61554;BME280;47425;51.976;5.326;2022-10-17T16:20:14;102199.13;;;21.61;54.22
61554;BME280;47425;51.976;5.326;2022-10-17T16:22:42;102210.72;;;21.60;54.48
61554;BME280;47425;51.976;5.326;2022-10-17T16:25:22;102209.94;;;21.58;54.62
61554;BME280;47425;51.976;5.326;2022-10-17T16:27:51;102215.19;;;21.60;54.85
61554;BME280;47425;51.976;5.326;2022-10-17T16:30:18;102213.38;;;21.60;54.71
61554;BME280;47425;51.976;5.326;2022-10-17T16:32:44;102216.78;;;21.64;54.85
61554;BME280;47425;51.976;5.326;2022-10-17T16:35:17;102218.53;;;21.65;55.07
61554;BME280;47425;51.976;5.326;2022-10-17T16:37:44;102228.88;;;21.71;55.13
61554;BME280;47425;51.976;5.326;2022-10-17T16:40:10;102224.38;;;21.73;55.07
61554;BME280;47425;51.976;5.326;2022-10-17T16:42:36;102221.78;;;21.72;55.01
61554;BME280;47425;51.976;5.326;2022-10-17T16:45:01;102219.09;;;21.72;55.45
61554;BME280;47425;51.976;5.326;2022-10-17T16:47:28;102217.28;;;21.72;55.03
61554;BME280;47425;51.976;5.326;2022-10-17T16:49:53;102225.38;;;21.71;55.33
61554;BME280;47425;51.976;5.326;2022-10-17T16:52:19;102236.09;;;21.69;55.15
61554;BME280;47425;51.976;5.326;2022-10-17T16:54:45;102229.88;;;21.69;55.50
61554;BME280;47425;51.976;5.326;2022-10-17T16:57:11;102242.28;;;21.70;55.40
61554;BME280;47425;51.976;5.326;2022-10-17T16:59:36;102239.69;;;21.68;55.11
61554;BME280;47425;51.976;5.326;2022-10-17T17:02:02;102246.84;;;21.68;55.31
61554;BME280;47425;51.976;5.326;2022-10-17T17:04:28;102250.38;;;21.68;55.32
61554;BME280;47425;51.976;5.326;2022-10-17T17:06:54;102257.44;;;21.69;55.46
61554;BME280;47425;51.976;5.326;2022-10-17T17:09:19;102256.56;;;21.69;55.36
61554;BME280;47425;51.976;5.326;2022-10-17T17:11:46;102251.28;;;21.67;55.58
61554;BME280;47425;51.976;5.326;2022-10-17T17:14:12;102256.69;;;21.66;55.86
61554;BME280;47425;51.976;5.326;2022-10-17T17:16:37;102260.25;;;21.66;55.66
61554;BME280;47425;51.976;5.326;2022-10-17T17:19:08;102262.19;;;21.62;55.94
61554;BME280;47425;51.976;5.326;2022-10-17T17:21:35;102257.63;;;21.65;55.50
61554;BME280;47425;51.976;5.326;2022-10-17T17:24:02;102252.28;;;21.65;55.92
61554;BME280;47425;51.976;5.326;2022-10-17T17:26:30;102253.88;;;21.69;55.59
61554;BME280;47425;51.976;5.326;2022-10-17T17:28:58;102244.28;;;21.65;55.74
61554;BME280;47425;51.976;5.326;2022-10-17T17:31:29;102247.78;;;21.67;55.38
61554;BME280;47425;51.976;5.326;2022-10-17T17:33:55;102261.78;;;21.72;55.17
61554;BME280;47425;51.976;5.326;2022-10-17T17:36:23;102261.78;;;21.72;55.29
61554;BME280;47425;51.976;5.326;2022-10-17T17:38:54;102261.97;;;21.67;55.58
61554;BME280;47425;51.976;5.326;2022-10-17T17:41:20;102262.91;;;21.66;55.57
61554;BME280;47425;51.976;5.326;2022-10-17T17:43:46;102269.84;;;21.70;55.46
61554;BME280;47425;51.976;5.326;2022-10-17T17:46:13;102266.22;;;21.71;55.29
61554;BME280;47425;51.976;5.326;2022-10-17T17:48:42;102276.75;;;21.74;55.39
61554;BME280;47425;51.976;5.326;2022-10-17T17:51:10;102274.09;;;21.74;55.38
61554;BME280;47425;51.976;5.326;2022-10-17T17:53:36;102274.03;;;21.76;55.24
61554;BME280;47425;51.976;5.326;2022-10-17T17:56:07;102278.53;;;21.74;55.18
61554;BME280;47425;51.976;5.326;2022-10-17T17:58:35;102281.03;;;21.78;55.10
61554;BME280;47425;51.976;5.326;2022-10-17T18:01:08;102274.88;;;21.76;55.12
61554;BME280;47425;51.976;5.326;2022-10-17T18:03:33;102277.47;;;21.78;55.22
61554;BME280;47425;51.976;5.326;2022-10-17T18:06:20;102283.81;;;21.75;55.18
61554;BME280;47425;51.976;5.326;2022-10-17T18:08:51;102288.22;;;21.76;55.14
61554;BME280;47425;51.976;5.326;2022-10-17T18:11:16;102293.53;;;21.76;55.10
61554;BME280;47425;51.976;5.326;2022-10-17T18:13:42;102295.28;;;21.77;55.00
61554;BME280;47425;51.976;5.326;2022-10-17T18:16:09;102291.75;;;21.77;54.83
61554;BME280;47425;51.976;5.326;2022-10-17T18:18:42;102301.53;;;21.76;55.13
61554;BME280;47425;51.976;5.326;2022-10-17T18:21:08;102297.94;;;21.77;55.13
61554;BME280;47425;51.976;5.326;2022-10-17T18:23:38;102304.22;;;21.76;54.91
61554;BME280;47425;51.976;5.326;2022-10-17T18:26:23;102306.09;;;21.74;55.27
61554;BME280;47425;51.976;5.326;2022-10-17T18:28:49;102307.75;;;21.77;54.67
61554;BME280;47425;51.976;5.326;2022-10-17T18:31:18;102303.44;;;21.74;55.11
61554;BME280;47425;51.976;5.326;2022-10-17T18:33:50;102309.53;;;21.76;55.07
61554;BME280;47425;51.976;5.326;2022-10-17T18:36:17;102312.13;;;21.78;55.04
61554;BME280;47425;51.976;5.326;2022-10-17T18:38:42;102306.81;;;21.78;54.95
61554;BME280;47425;51.976;5.326;2022-10-17T18:41:10;102309.47;;;21.78;54.78
61554;BME280;47425;51.976;5.326;2022-10-17T18:43:40;102303.28;;;21.77;54.88
61554;BME280;47425;51.976;5.326;2022-10-17T18:46:08;102305.03;;;21.78;54.76
61554;BME280;47425;51.976;5.326;2022-10-17T18:48:34;102312.13;;;21.78;54.99
61554;BME280;47425;51.976;5.326;2022-10-17T18:51:03;102310.34;;;21.78;55.05
61554;BME280;47425;51.976;5.326;2022-10-17T18:53:30;102316.63;;;21.77;54.84
61554;BME280;47425;51.976;5.326;2022-10-17T18:55:56;102319.44;;;21.74;54.97
61554;BME280;47425;51.976;5.326;2022-10-17T18:58:22;102327.34;;;21.76;54.99
61554;BME280;47425;51.976;5.326;2022-10-17T19:00:50;102323.03;;;21.73;55.09
61554;BME280;47425;51.976;5.326;2022-10-17T19:03:17;102324.75;;;21.74;54.97
61554;BME280;47425;51.976;5.326;2022-10-17T19:05:43;102321.22;;;21.74;55.08
61554;BME280;47425;51.976;5.326;2022-10-17T19:08:11;102323.94;;;21.72;54.87
61554;BME280;47425;51.976;5.326;2022-10-17T19:10:39;102327.44;;;21.74;55.36
61554;BME280;47425;51.976;5.326;2022-10-17T19:13:06;102323.88;;;21.74;54.87
61554;BME280;47425;51.976;5.326;2022-10-17T19:15:31;102329.22;;;21.74;55.04
61554;BME280;47425;51.976;5.326;2022-10-17T19:17:57;102332.84;;;21.73;54.82
61554;BME280;47425;51.976;5.326;2022-10-17T19:20:23;102331.03;;;21.73;54.89
61554;BME280;47425;51.976;5.326;2022-10-17T19:22:51;102331.81;;;21.75;54.80
61554;BME280;47425;51.976;5.326;2022-10-17T19:25:17;102327.34;;;21.76;54.87
61554;BME280;47425;51.976;5.326;2022-10-17T19:27:43;102331.03;;;21.73;55.01
61554;BME280;47425;51.976;5.326;2022-10-17T19:30:09;102333.63;;;21.75;54.96
61554;BME280;47425;51.976;5.326;2022-10-17T19:32:37;102344.22;;;21.76;54.91
61554;BME280;47425;51.976;5.326;2022-10-17T19:35:03;102336.22;;;21.76;54.83
61554;BME280;47425;51.976;5.326;2022-10-17T19:37:30;102340.75;;;21.74;54.87
61554;BME280;47425;51.976;5.326;2022-10-17T19:39:56;102338.88;;;21.76;54.78
61554;BME280;47425;51.976;5.326;2022-10-17T19:42:22;102341.53;;;21.76;54.83
61554;BME280;47425;51.976;5.326;2022-10-17T19:47:36;102340.69;;;21.76;55.10
61554;BME280;47425;51.976;5.326;2022-10-17T19:50:02;102348.63;;;21.77;54.91
61554;BME280;47425;51.976;5.326;2022-10-17T19:52:28;102342.47;;;21.75;54.65
61554;BME280;47425;51.976;5.326;2022-10-17T19:54:56;102346.88;;;21.76;54.96
61554;BME280;47425;51.976;5.326;2022-10-17T19:57:21;102338.94;;;21.75;54.85
61554;BME280;47425;51.976;5.326;2022-10-17T19:59:52;102341.63;;;21.75;54.91
61554;BME280;47425;51.976;5.326;2022-10-17T20:02:18;102345.13;;;21.75;54.91
61554;BME280;47425;51.976;5.326;2022-10-17T20:04:45;102355.81;;;21.75;54.97
61554;BME280;47425;51.976;5.326;2022-10-17T20:07:10;102354.03;;;21.76;54.93
61554;BME280;47425;51.976;5.326;2022-10-17T20:09:36;102354.09;;;21.74;54.72
61554;BME280;47425;51.976;5.326;2022-10-17T20:12:02;102367.28;;;21.77;54.49
61554;BME280;47425;51.976;5.326;2022-10-17T20:14:28;102368.22;;;21.76;55.01
61554;BME280;47425;51.976;5.326;2022-10-17T20:16:53;102380.63;;;21.77;54.56
61554;BME280;47425;51.976;5.326;2022-10-17T20:19:19;102380.53;;;21.79;54.45
61554;BME280;47425;51.976;5.326;2022-10-17T20:21:45;102375.44;;;21.74;54.65
61554;BME280;47425;51.976;5.326;2022-10-17T20:24:13;102381.53;;;21.76;54.67
61554;BME280;47425;51.976;5.326;2022-10-17T20:26:39;102389.44;;;21.79;54.85
61554;BME280;47425;51.976;5.326;2022-10-17T20:29:12;102385.09;;;21.77;54.53
61554;BME280;47425;51.976;5.326;2022-10-17T20:31:41;102390.28;;;21.80;54.87
61554;BME280;47425;51.976;5.326;2022-10-17T20:34:08;102391.22;;;21.79;54.74
61554;BME280;47425;51.976;5.326;2022-10-17T20:36:34;102392.13;;;21.78;54.69
61554;BME280;47425;51.976;5.326;2022-10-17T20:39:02;102391.44;;;21.74;54.86
61554;BME280;47425;51.976;5.326;2022-10-17T20:41:27;102386.03;;;21.76;54.90
61554;BME280;47425;51.976;5.326;2022-10-17T20:43:54;102388.00;;;21.71;54.77
61554;BME280;47425;51.976;5.326;2022-10-17T20:46:21;102389.06;;;21.67;54.94
61554;BME280;47425;51.976;5.326;2022-10-17T20:48:52;102398.88;;;21.66;54.80
61554;BME280;47425;51.976;5.326;2022-10-17T20:51:18;102404.34;;;21.63;54.60
61554;BME280;47425;51.976;5.326;2022-10-17T20:53:44;102411.41;;;21.64;55.08
61554;BME280;47425;51.976;5.326;2022-10-17T20:56:17;102406.28;;;21.59;54.77
61554;BME280;47425;51.976;5.326;2022-10-17T20:58:44;102420.31;;;21.63;54.93
61554;BME280;47425;51.976;5.326;2022-10-17T21:01:09;102419.53;;;21.61;55.04
61554;BME280;47425;51.976;5.326;2022-10-17T21:03:37;102420.47;;;21.60;54.78
61554;BME280;47425;51.976;5.326;2022-10-17T21:06:06;102430.31;;;21.58;55.08
61554;BME280;47425;51.976;5.326;2022-10-17T21:08:31;102428.59;;;21.57;55.10
61554;BME280;47425;51.976;5.326;2022-10-17T21:11:08;102421.53;;;21.56;55.31
61554;BME280;47425;51.976;5.326;2022-10-17T21:13:33;102418.06;;;21.52;54.66
61554;BME280;47425;51.976;5.326;2022-10-17T21:16:19;102429.59;;;21.54;55.01
61554;BME280;47425;51.976;5.326;2022-10-17T21:18:45;102439.38;;;21.54;55.07
61554;BME280;47425;51.976;5.326;2022-10-17T21:23:43;102441.19;;;21.53;54.93
61554;BME280;47425;51.976;5.326;2022-10-17T21:26:10;102437.59;;;21.54;54.94
61554;BME280;47425;51.976;5.326;2022-10-17T21:28:40;102436.69;;;21.54;54.86
61554;BME280;47425;51.976;5.326;2022-10-17T21:31:17;102440.28;;;21.53;54.95
61554;BME280;47425;51.976;5.326;2022-10-17T21:33:47;102442.91;;;21.54;54.87
61554;BME280;47425;51.976;5.326;2022-10-17T21:36:13;102426.06;;;21.52;54.82
61554;BME280;47425;51.976;5.326;2022-10-17T21:38:40;102429.59;;;21.54;54.54
61554;BME280;47425;51.976;5.326;2022-10-17T21:41:07;102432.25;;;21.54;54.76
61554;BME280;47425;51.976;5.326;2022-10-17T21:43:34;102435.41;;;21.64;54.54
61554;BME280;47425;51.976;5.326;2022-10-17T21:46:11;102440.19;;;21.56;54.64
61554;BME280;47425;51.976;5.326;2022-10-17T21:48:37;102442.91;;;21.54;54.37
61554;BME280;47425;51.976;5.326;2022-10-17T21:51:06;102440.31;;;21.51;54.84
61554;BME280;47425;51.976;5.326;2022-10-17T21:53:33;102440.28;;;21.53;54.56
61554;BME280;47425;51.976;5.326;2022-10-17T21:56:04;102441.28;;;21.50;54.55
61554;BME280;47425;51.976;5.326;2022-10-17T21:58:30;102438.56;;;21.52;54.47
61554;BME280;47425;51.976;5.326;2022-10-17T22:01:14;102448.31;;;21.51;54.56
61554;BME280;47425;51.976;5.326;2022-10-17T22:03:43;102444.81;;;21.51;54.61
61554;BME280;47425;51.976;5.326;2022-10-17T22:06:10;102448.38;;;21.50;54.81
61554;BME280;47425;51.976;5.326;2022-10-17T22:08:36;102447.53;;;21.49;54.49
61554;BME280;47425;51.976;5.326;2022-10-17T22:11:04;102441.44;;;21.45;54.54
61554;BME280;47425;51.976;5.326;2022-10-17T22:13:29;102448.38;;;21.50;54.70
61554;BME280;47425;51.976;5.326;2022-10-17T22:15:59;102450.38;;;21.44;54.50
61554;BME280;47425;51.976;5.326;2022-10-17T22:18:25;102451.25;;;21.45;54.66
61554;BME280;47425;51.976;5.326;2022-10-17T22:20:52;102454.72;;;21.47;54.83
61554;BME280;47425;51.976;5.326;2022-10-17T22:23:17;102458.25;;;21.48;54.76
61554;BME280;47425;51.976;5.326;2022-10-17T22:25:52;102455.78;;;21.43;54.54
61554;BME280;47425;51.976;5.326;2022-10-17T22:28:19;102455.84;;;21.41;55.03
